Time;durP1;ratioP1;P1;durP2;ratioP2;P2;SDS_P1;SDS_P2;PMS_P1;PMS_P2;Temp;Humidity;BMP_temperature;BMP_pressure;BME280_temperature;BME280_humidity;BME280_pressure;Samples;Min_cycle;Max_cycle;Signal;HPM_P1;HPM_P2
2023/03/24 11:45:45;;;;;;;13.40;8.77;;;14.00;99.90;;;;;;4584023;19;20003;-30
2023/03/24 11:47:36;;;;;;;19.57;14.13;;;14.00;99.90;;;;;;4587544;19;20018;-31
2023/03/24 11:49:09;;;;;;;33.63;24.42;;;14.00;99.90;;;;;;4589771;19;20017;-31
2023/03/24 11:50:40;;;;;;;26.03;18.37;;;13.90;99.90;;;;;;4591011;19;20022;-32
2023/03/24 11:52:30;;;;;;;8.20;5.47;;;13.90;99.90;;;;;;4590678;19;20018;-30
2023/03/24 11:54:02;;;;;;;17.27;11.80;;;14.00;99.90;;;;;;4590759;19;20022;-30
2023/03/24 11:55:46;;;;;;;21.60;13.52;;;14.10;99.90;;;;;;4589328;19;20018;-30
2023/03/24 11:57:44;;;;;;;23.23;13.77;;;14.20;99.90;;;;;;4589799;19;20043;-30
2023/03/24 12:00:07;;;;;;;11.27;7.10;;;14.20;99.90;;;;;;4590022;19;20033;-30
2023/03/24 12:01:42;;;;;;;11.27;9.23;;;14.20;99.90;;;;;;4587069;19;20193;-30
2023/03/24 12:03:35;;;;;;;10.52;8.30;;;14.10;99.90;;;;;;4586788;19;20034;-31
2023/03/24 12:05:15;;;;;;;;;;;14.20;99.90;;;;;;4589837;19;20014;-30
2023/03/24 12:06:55;;;;;;;18.43;11.73;;;14.10;99.90;;;;;;4588272;19;20249;-31
2023/03/24 12:08:45;;;;;;;20.38;12.35;;;14.10;99.90;;;;;;4588973;19;20047;-32
2023/03/24 12:10:25;;;;;;;16.80;10.48;;;14.00;99.90;;;;;;4588364;19;20010;-30
2023/03/24 12:12:10;;;;;;;15.55;9.45;;;14.00;99.90;;;;;;4588084;19;20046;-31
2023/03/24 12:13:47;;;;;;;9.18;6.88;;;13.90;99.90;;;;;;4588673;19;20014;-30
2023/03/24 12:15:35;;;;;;;8.55;6.35;;;14.00;99.90;;;;;;4588164;19;20014;-31
2023/03/24 12:17:14;;;;;;;6.10;4.70;;;14.00;99.90;;;;;;4588202;19;21161;-31
2023/03/24 12:19:07;;;;;;;8.20;6.13;;;14.00;99.90;;;;;;4588655;19;20361;-31
2023/03/24 12:20:47;;;;;;;8.90;6.45;;;14.00;99.90;;;;;;4587527;19;20519;-30
2023/03/24 12:22:47;;;;;;;9.45;6.75;;;14.00;99.90;;;;;;4587689;19;20014;-30
2023/03/24 12:24:46;;;;;;;6.10;5.30;;;14.10;99.90;;;;;;4587131;19;20015;-31
2023/03/24 12:26:37;;;;;;;7.53;5.13;;;14.10;99.90;;;;;;4588349;19;20014;-30
2023/03/24 12:28:46;;;;;;;7.88;6.35;;;14.10;99.90;;;;;;4588243;19;20014;-31
2023/03/24 12:30:36;;;;;;;7.45;6.13;;;14.10;99.90;;;;;;4587099;19;20040;-30
2023/03/24 12:32:44;;;;;;;10.95;6.25;;;14.20;99.90;;;;;;4588550;19;20010;-30
2023/03/24 12:34:34;;;;;;;7.80;6.30;;;14.20;99.90;;;;;;4588143;19;20070;-32
2023/03/24 12:36:30;;;;;;;7.93;5.40;;;14.10;99.90;;;;;;4587816;19;20031;-31
2023/03/24 12:38:10;;;;;;;8.03;5.80;;;14.10;99.90;;;;;;4587058;19;20126;-32
2023/03/24 12:40:15;;;;;;;8.18;6.53;;;14.10;99.90;;;;;;4588731;19;20018;-30
2023/03/24 12:42:00;;;;;;;7.93;6.30;;;14.10;99.90;;;;;;4585769;19;20563;-33
2023/03/24 12:43:50;;;;;;;8.77;6.35;;;14.10;99.90;;;;;;4586723;19;20129;-30
2023/03/24 12:45:25;;;;;;;10.65;6.60;;;14.10;99.90;;;;;;4587024;19;20011;-31
2023/03/24 12:47:05;;;;;;;9.75;6.50;;;14.10;99.90;;;;;;4585763;19;20021;-30
2023/03/24 12:48:37;;;;;;;9.15;6.72;;;14.10;99.90;;;;;;4588266;19;20011;-31
2023/03/24 12:50:19;;;;;;;7.35;6.55;;;14.10;99.90;;;;;;4587909;19;20022;-32
2023/03/24 12:51:56;;;;;;;10.43;7.07;;;14.10;99.90;;;;;;4587965;19;20066;-31
2023/03/24 12:53:40;;;;;;;7.95;5.68;;;14.10;99.90;;;;;;4586721;19;20489;-30
2023/03/24 12:55:24;;;;;;;9.53;6.10;;;14.20;99.90;;;;;;4585794;19;20073;-30
2023/03/24 12:57:07;;;;;;;9.75;6.18;;;14.10;99.90;;;;;;4588219;19;20354;-31
2023/03/24 12:58:41;;;;;;;9.00;6.60;;;14.20;99.90;;;;;;4587635;19;20030;-31
2023/03/24 13:00:17;;;;;;;11.32;6.80;;;14.10;99.90;;;;;;4588432;19;20051;-30
2023/03/24 13:01:54;;;;;;;12.68;7.28;;;14.10;99.90;;;;;;4586541;19;20015;-30
2023/03/24 13:03:54;;;;;;;8.38;6.78;;;14.00;99.90;;;;;;4586614;19;20018;-30
2023/03/24 13:05:30;;;;;;;9.65;7.65;;;14.00;99.90;;;;;;4587459;19;20015;-31
2023/03/24 13:07:13;;;;;;;9.20;6.15;;;14.00;99.90;;;;;;4587455;19;20026;-30
2023/03/24 13:08:49;;;;;;;11.65;7.25;;;14.00;99.90;;;;;;4586383;19;20082;-32
2023/03/24 13:10:48;;;;;;;8.80;6.05;;;14.00;99.90;;;;;;4588400;19;20022;-30
2023/03/24 13:12:35;;;;;;;9.43;6.23;;;13.90;99.90;;;;;;4586399;19;20018;-31
2023/03/24 13:14:11;;;;;;;10.10;5.70;;;13.90;99.90;;;;;;4587423;19;20011;-31
2023/03/24 13:15:53;;;;;;;9.87;6.70;;;13.80;99.90;;;;;;4592612;19;20078;-33
2023/03/24 13:17:37;;;;;;;7.03;5.30;;;13.90;99.90;;;;;;4591682;19;20039;-32
2023/03/24 13:19:22;;;;;;;11.55;6.80;;;14.00;99.90;;;;;;4591882;19;20046;-30
2023/03/24 13:20:55;;;;;;;10.10;6.47;;;14.00;99.90;;;;;;4593551;19;20025;-31
2023/03/24 13:22:30;;;;;;;9.70;6.90;;;14.00;99.90;;;;;;4592406;19;20024;-30
2023/03/24 13:24:11;;;;;;;10.27;6.28;;;14.00;99.90;;;;;;4593339;19;20014;-31
2023/03/24 13:26:11;;;;;;;11.05;6.32;;;14.00;99.90;;;;;;4593609;19;20484;-33
2023/03/24 13:27:43;;;;;;;8.95;6.75;;;14.00;99.90;;;;;;4590999;19;20511;-34
2023/03/24 13:29:47;;;;;;;8.25;5.95;;;13.90;99.90;;;;;;4591336;19;20036;-31
2023/03/24 13:31:19;;;;;;;7.80;5.68;;;13.90;99.90;;;;;;4591756;19;20026;-30
2023/03/24 13:32:52;;;;;;;6.82;5.28;;;13.90;99.90;;;;;;4590455;19;21695;-30
2023/03/24 13:34:37;;;;;;;5.93;4.57;;;13.90;99.90;;;;;;4591829;19;20017;-34
2023/03/24 13:36:30;;;;;;;7.53;5.30;;;13.80;99.90;;;;;;4592205;19;20014;-31
2023/03/24 13:38:26;;;;;;;7.47;5.35;;;13.90;99.90;;;;;;4590465;19;20011;-30
2023/03/24 13:39:59;;;;;;;15.10;6.93;;;13.90;99.90;;;;;;4591271;19;20372;-30
2023/03/24 13:41:36;;;;;;;6.65;5.47;;;13.90;99.90;;;;;;4587058;19;20059;-30
2023/03/24 13:43:31;;;;;;;6.38;5.10;;;14.00;99.90;;;;;;4590303;19;20330;-30
2023/03/24 13:45:05;;;;;;;6.60;4.13;;;14.10;99.90;;;;;;4591439;19;20012;-30
2023/03/24 13:46:37;;;;;;;8.63;5.07;;;14.30;99.90;;;;;;4589470;19;20021;-29
2023/03/24 13:48:08;;;;;;;5.93;4.32;;;14.40;99.90;;;;;;4591856;19;20016;-32
2023/03/24 13:49:41;;;;;;;6.63;4.93;;;14.60;99.90;;;;;;4591201;19;20035;-30
2023/03/24 13:51:18;;;;;;;6.30;4.75;;;14.80;99.90;;;;;;4591017;19;20454;-30
2023/03/24 13:52:50;;;;;;;11.80;5.97;;;14.90;99.90;;;;;;4590710;19;20051;-31
2023/03/24 13:54:26;;;;;;;7.47;4.50;;;15.10;99.90;;;;;;4591786;19;20018;-30
2023/03/24 13:56:00;;;;;;;10.70;5.40;;;15.20;99.90;;;;;;4591010;19;20006;-30
2023/03/24 13:57:34;;;;;;;8.40;4.45;;;15.30;99.90;;;;;;4589343;19;20018;-32
2023/03/24 13:59:30;;;;;;;7.60;4.25;;;15.30;99.90;;;;;;4591304;19;20018;-31
2023/03/24 14:01:08;;;;;;;7.10;4.28;;;15.40;99.90;;;;;;4590644;19;20025;-32
2023/03/24 14:02:48;;;;;;;8.80;5.25;;;15.40;99.90;;;;;;4590646;19;20030;-32
2023/03/24 14:04:22;;;;;;;6.93;4.45;;;15.50;99.90;;;;;;4590927;19;20035;-31
2023/03/24 14:05:59;;;;;;;6.03;3.70;;;15.40;99.90;;;;;;4591231;19;20013;-32
2023/03/24 14:07:47;;;;;;;4.72;3.80;;;15.40;99.90;;;;;;4592104;19;20014;-31
2023/03/24 14:09:23;;;;;;;5.32;4.15;;;15.40;99.90;;;;;;4590673;19;20037;-32
2023/03/24 14:10:55;;;;;;;7.25;4.93;;;15.50;99.90;;;;;;4590563;19;20077;-30
2023/03/24 14:12:26;;;;;;;6.20;4.18;;;15.60;99.90;;;;;;4590667;19;20032;-30
2023/03/24 14:14:13;;;;;;;7.40;5.20;;;15.60;99.90;;;;;;4590387;19;20022;-31
2023/03/24 14:15:52;;;;;;;7.20;4.88;;;15.60;99.90;;;;;;4590850;19;20046;-31
2023/03/24 14:17:24;;;;;;;6.25;5.03;;;15.60;99.90;;;;;;4590115;19;20074;-31
2023/03/24 14:19:18;;;;;;;9.95;6.38;;;15.70;99.90;;;;;;4590728;19;20487;-30
2023/03/24 14:21:01;;;;;;;10.05;7.10;;;15.70;99.90;;;;;;4590136;19;20501;-34
2023/03/24 14:22:33;;;;;;;10.40;7.70;;;15.70;99.90;;;;;;4590784;19;20017;-31
2023/03/24 14:24:20;;;;;;;14.20;7.72;;;15.70;99.90;;;;;;4591228;19;20019;-30
2023/03/24 14:25:55;;;;;;;11.63;8.73;;;15.70;99.90;;;;;;4590134;19;20370;-32
2023/03/24 14:27:35;;;;;;;10.68;7.80;;;15.70;99.90;;;;;;4591741;19;20023;-30
2023/03/24 14:29:38;;;;;;;9.35;6.60;;;15.70;99.90;;;;;;4592516;19;20092;-31
2023/03/24 14:31:16;;;;;;;9.00;6.43;;;15.80;99.90;;;;;;4591465;19;20491;-31
2023/03/24 14:32:52;;;;;;;10.18;7.68;;;15.80;99.90;;;;;;4591681;19;20022;-30
2023/03/24 14:34:26;;;;;;;10.65;7.63;;;15.80;99.90;;;;;;4593271;19;20022;-30
2023/03/24 14:36:03;;;;;;;7.97;5.80;;;15.70;99.90;;;;;;4591666;19;20014;-33
2023/03/24 14:37:34;;;;;;;8.52;5.65;;;15.80;99.90;;;;;;4592737;19;20520;-31
2023/03/24 14:39:26;;;;;;;6.45;4.53;;;15.90;99.90;;;;;;4592698;19;20010;-30
2023/03/24 14:40:58;;;;;;;8.38;5.20;;;16.10;99.90;;;;;;4592546;19;20341;-32
2023/03/24 14:42:32;;;;;;;7.18;5.30;;;16.40;99.90;;;;;;4591192;19;20491;-30
2023/03/24 14:44:04;;;;;;;8.63;6.18;;;16.40;99.90;;;;;;4591724;19;20022;-31
2023/03/24 14:45:52;;;;;;;8.43;5.65;;;16.30;99.90;;;;;;4592755;19;20014;-31
2023/03/24 14:47:34;;;;;;;10.85;7.47;;;16.30;99.90;;;;;;4594123;19;20014;-31
2023/03/24 14:49:40;;;;;;;11.65;8.32;;;16.30;99.90;;;;;;4593682;19;20018;-33
2023/03/24 14:51:24;;;;;;;15.88;10.18;;;16.20;99.90;;;;;;4592214;19;20006;-31
2023/03/24 14:53:01;;;;;;;17.50;11.85;;;16.10;99.90;;;;;;4591934;19;20489;-31
2023/03/24 14:54:44;;;;;;;15.00;11.25;;;16.10;99.90;;;;;;4592173;19;20023;-31
2023/03/24 14:56:17;;;;;;;10.32;8.20;;;16.00;99.90;;;;;;4591727;19;20049;-31
2023/03/24 14:58:02;;;;;;;11.40;6.60;;;16.00;99.90;;;;;;4592251;19;20393;-30
2023/03/24 14:59:40;;;;;;;10.88;7.10;;;16.10;99.90;;;;;;4592598;19;20011;-30
2023/03/24 15:01:11;;;;;;;9.48;6.72;;;16.00;99.90;;;;;;4591367;19;20465;-30
2023/03/24 15:02:44;;;;;;;8.88;6.10;;;16.10;99.90;;;;;;4591954;19;20018;-31
2023/03/24 15:04:17;;;;;;;7.20;5.22;;;16.10;99.90;;;;;;4591508;19;20018;-32
2023/03/24 15:05:49;;;;;;;;;;;16.10;99.90;;;;;;4593172;19;20014;-33
2023/03/24 15:07:20;;;;;;;7.38;5.28;;;16.20;99.90;;;;;;4591570;19;19915;-30
2023/03/24 15:08:57;;;;;;;8.60;6.00;;;16.20;99.90;;;;;;4592028;19;20014;-30
2023/03/24 15:10:50;;;;;;;8.77;6.35;;;16.20;99.90;;;;;;4591728;19;20014;-30
2023/03/24 15:12:21;;;;;;;7.30;5.65;;;16.20;99.90;;;;;;4591733;19;20010;-32
2023/03/24 15:13:56;;;;;;;9.95;7.32;;;16.20;99.90;;;;;;4592216;19;20010;-31
2023/03/24 15:15:27;;;;;;;8.70;5.65;;;16.20;99.90;;;;;;4591579;19;20006;-30
2023/03/24 15:17:08;;;;;;;9.00;6.57;;;16.30;99.90;;;;;;4591196;19;20011;-30
2023/03/24 15:18:55;;;;;;;8.57;6.07;;;16.20;99.90;;;;;;4591502;19;20018;-34
2023/03/24 15:20:31;;;;;;;8.88;6.32;;;16.20;99.90;;;;;;4591463;19;20017;-30
2023/03/24 15:22:04;;;;;;;7.22;5.80;;;16.20;99.90;;;;;;4588026;19;20017;-30
2023/03/24 15:23:37;;;;;;;7.28;5.90;;;16.10;99.90;;;;;;4589422;19;20494;-30
2023/03/24 15:25:08;;;;;;;7.00;5.55;;;16.10;99.90;;;;;;4589744;19;20568;-31
2023/03/24 15:26:40;;;;;;;7.63;6.63;;;16.10;99.90;;;;;;4589561;19;20007;-32
2023/03/24 15:28:17;;;;;;;7.93;6.15;;;16.10;99.90;;;;;;4589222;19;20026;-31
2023/03/24 15:29:54;;;;;;;8.00;6.18;;;16.20;99.90;;;;;;4589284;19;20003;-32
2023/03/24 15:31:29;;;;;;;8.85;4.70;;;16.20;99.90;;;;;;4589625;19;20330;-30
2023/03/24 15:33:00;;;;;;;6.88;5.78;;;16.30;99.90;;;;;;4589162;19;20011;-30
2023/03/24 15:34:41;;;;;;;9.30;8.02;;;16.50;99.90;;;;;;4589974;19;20014;-31
2023/03/24 15:36:15;;;;;;;9.30;8.35;;;15.30;99.90;;;;;;4590860;19;20545;-30
2023/03/24 15:37:55;;;;;;;10.50;8.48;;;14.20;99.90;;;;;;4587155;19;20141;-30
2023/03/24 15:39:37;;;;;;;8.87;7.10;;;13.80;99.90;;;;;;4591003;19;20030;-30
2023/03/24 15:41:11;;;;;;;7.45;6.30;;;13.70;99.90;;;;;;4589186;19;20111;-30
2023/03/24 15:42:43;;;;;;;8.32;6.82;;;13.70;99.90;;;;;;4590741;19;20033;-30
2023/03/24 15:44:19;;;;;;;8.45;5.60;;;13.80;99.90;;;;;;4590875;19;20010;-30
2023/03/24 15:45:55;;;;;;;6.25;5.65;;;13.90;99.90;;;;;;4590514;19;20010;-30
2023/03/24 15:47:28;;;;;;;7.03;5.90;;;13.90;99.90;;;;;;4590787;19;20131;-30
2023/03/24 15:49:02;;;;;;;11.18;9.35;;;14.00;99.90;;;;;;4591192;19;20495;-31
2023/03/24 15:50:40;;;;;;;12.48;9.90;;;14.10;99.90;;;;;;4591608;19;20015;-32
2023/03/24 15:52:34;;;;;;;9.70;8.40;;;14.30;99.90;;;;;;4592244;19;20011;-31
2023/03/24 15:54:21;;;;;;;10.45;8.80;;;14.60;99.90;;;;;;4591059;19;20007;-31
2023/03/24 15:56:16;;;;;;;8.02;7.18;;;14.90;99.90;;;;;;4590216;19;20010;-31
2023/03/24 15:57:47;;;;;;;6.75;5.38;;;15.20;99.90;;;;;;4590118;19;20007;-30
2023/03/24 15:59:19;;;;;;;7.30;4.88;;;15.30;99.90;;;;;;4590318;19;20007;-30
2023/03/24 16:00:52;;;;;;;6.50;4.45;;;15.50;99.90;;;;;;4589343;19;20022;-30
2023/03/24 16:02:30;;;;;;;6.63;4.68;;;15.60;99.90;;;;;;4590526;19;20014;-31
2023/03/24 16:04:04;;;;;;;6.93;4.60;;;15.70;99.90;;;;;;4591032;19;20007;-31
2023/03/24 16:05:36;;;;;;;7.90;4.90;;;15.80;99.90;;;;;;4589658;19;20387;-31
2023/03/24 16:07:22;;;;;;;6.72;5.63;;;15.80;99.90;;;;;;4589623;19;20014;-31
2023/03/24 16:08:53;;;;;;;8.10;5.10;;;15.90;99.90;;;;;;4591114;19;20030;-31
2023/03/24 16:10:32;;;;;;;7.95;6.03;;;15.90;99.90;;;;;;4591743;19;20017;-31
2023/03/24 16:12:10;;;;;;;7.75;5.85;;;15.90;99.90;;;;;;4591112;19;20010;-30
2023/03/24 16:13:43;;;;;;;8.55;6.60;;;15.90;99.90;;;;;;4591597;19;20006;-31
2023/03/24 16:15:15;;;;;;;9.70;6.57;;;15.90;99.90;;;;;;4591693;19;20018;-30
2023/03/24 16:16:46;;;;;;;8.82;6.65;;;16.00;99.90;;;;;;4589873;19;20077;-30
2023/03/24 16:18:38;;;;;;;8.70;6.85;;;16.00;99.90;;;;;;4593110;19;20010;-32
2023/03/24 16:20:18;;;;;;;8.18;7.20;;;16.00;99.90;;;;;;4592342;19;20014;-30
2023/03/24 16:21:54;;;;;;;9.55;7.88;;;16.00;99.90;;;;;;4589074;19;20011;-30
2023/03/24 16:23:26;;;;;;;9.52;8.57;;;16.10;99.90;;;;;;4591024;19;20019;-33
2023/03/24 16:24:58;;;;;;;11.57;9.10;;;16.10;99.90;;;;;;4590133;19;20360;-31
2023/03/24 16:26:32;;;;;;;11.48;9.25;;;16.00;99.90;;;;;;4590723;19;20035;-31
2023/03/24 16:28:04;;;;;;;13.25;9.07;;;16.00;99.90;;;;;;4590537;19;20010;-31
2023/03/24 16:29:37;;;;;;;12.55;8.90;;;16.00;99.90;;;;;;4592017;19;20037;-30
2023/03/24 16:31:33;;;;;;;14.18;10.00;;;16.00;99.90;;;;;;4593161;19;20033;-34
2023/03/24 16:33:05;;;;;;;12.45;9.85;;;15.90;99.90;;;;;;4591393;19;20021;-31
2023/03/24 16:34:37;;;;;;;11.75;8.73;;;15.70;99.90;;;;;;4590489;19;20014;-33
2023/03/24 16:36:10;;;;;;;11.70;9.60;;;15.60;99.90;;;;;;4591282;19;20027;-31
2023/03/24 16:37:43;;;;;;;13.23;9.95;;;15.50;99.90;;;;;;4589144;19;20479;-31
2023/03/24 16:39:17;;;;;;;16.30;12.68;;;15.40;99.90;;;;;;4590855;19;20015;-32
2023/03/24 16:40:51;;;;;;;18.08;12.73;;;15.30;99.90;;;;;;4591349;19;20090;-30
2023/03/24 16:42:22;;;;;;;15.02;12.52;;;15.20;99.90;;;;;;4589994;19;20471;-30
2023/03/24 16:43:54;;;;;;;20.77;17.83;;;15.20;99.90;;;;;;4589270;19;20015;-30
2023/03/24 16:45:27;;;;;;;27.90;22.83;;;15.10;99.90;;;;;;4589689;19;20015;-30
2023/03/24 16:46:58;;;;;;;35.50;24.60;;;15.00;99.90;;;;;;4587829;19;20015;-29
2023/03/24 16:48:30;;;;;;;15.98;11.27;;;14.70;99.90;;;;;;4589718;19;20017;-30
2023/03/24 16:50:35;;;;;;;15.93;11.77;;;14.50;99.90;;;;;;4594550;19;20066;-32
2023/03/24 16:52:12;;;;;;;8.73;5.90;;;14.40;99.90;;;;;;4593591;19;20003;-32
2023/03/24 16:53:44;;;;;;;7.45;4.88;;;14.40;99.90;;;;;;4594548;19;20056;-30
2023/03/24 16:55:15;;;;;;;;;;;14.40;99.90;;;;;;4595649;19;20018;-30
2023/03/24 16:56:47;;;;;;;10.07;5.88;;;14.50;99.90;;;;;;4595214;19;19926;-31
2023/03/24 16:58:19;;;;;;;8.15;5.20;;;14.60;99.90;;;;;;4592691;19;20528;-30
2023/03/24 16:59:50;;;;;;;8.43;5.35;;;14.60;99.90;;;;;;4595063;19;20026;-30
2023/03/24 17:01:37;;;;;;;8.88;4.78;;;14.70;99.90;;;;;;4593076;19;20078;-31
2023/03/24 17:03:09;;;;;;;7.70;4.60;;;14.70;99.90;;;;;;4595642;19;20038;-34
2023/03/24 17:04:40;;;;;;;9.82;7.10;;;14.80;99.90;;;;;;4594095;19;20014;-31
2023/03/24 17:06:30;;;;;;;10.85;7.20;;;14.90;99.90;;;;;;4594318;19;20022;-31
2023/03/24 17:08:01;;;;;;;17.35;10.02;;;14.90;99.90;;;;;;4593954;19;20006;-33
2023/03/24 17:09:34;;;;;;;34.35;23.75;;;15.00;99.90;;;;;;4593803;19;20022;-30
2023/03/24 17:11:05;;;;;;;30.33;19.80;;;15.10;99.90;;;;;;4592488;19;20082;-30
2023/03/24 17:12:37;;;;;;;22.83;16.73;;;15.10;99.90;;;;;;4593691;19;20389;-30
2023/03/24 17:14:10;;;;;;;;;;;15.00;99.90;;;;;;4594712;19;20014;-32
2023/03/24 17:15:42;;;;;;;14.32;9.85;;;15.00;99.90;;;;;;4591262;19;19930;-31
2023/03/24 17:17:14;;;;;;;18.60;11.38;;;15.00;99.90;;;;;;4594147;19;20011;-32
2023/03/24 17:18:45;;;;;;;24.65;14.70;;;15.00;99.90;;;;;;4592380;19;20115;-31
2023/03/24 17:20:17;;;;;;;31.73;20.77;;;15.00;99.90;;;;;;4592332;19;20855;-31
2023/03/24 17:21:58;;;;;;;31.48;18.58;;;15.00;99.90;;;;;;4592274;19;20086;-31
2023/03/24 17:23:33;;;;;;;26.05;15.85;;;14.90;99.90;;;;;;4593746;19;20027;-30
2023/03/24 17:25:07;;;;;;;23.80;15.35;;;14.90;99.90;;;;;;4591547;19;20046;-33
2023/03/24 17:26:41;;;;;;;18.50;13.23;;;14.90;99.90;;;;;;4592167;19;20102;-31
2023/03/24 17:28:17;;;;;;;16.25;11.02;;;14.80;99.90;;;;;;4591107;19;20014;-30
2023/03/24 17:29:48;;;;;;;15.57;10.70;;;14.80;99.90;;;;;;4591067;19;20017;-31
2023/03/24 17:31:20;;;;;;;11.20;8.52;;;14.80;99.90;;;;;;4592467;19;20519;-31
2023/03/24 17:32:53;;;;;;;12.93;7.60;;;14.80;99.90;;;;;;4590505;19;20026;-30
2023/03/24 17:34:26;;;;;;;9.32;7.05;;;14.70;99.90;;;;;;4591368;19;20502;-30
2023/03/24 17:35:58;;;;;;;9.07;6.50;;;14.70;99.90;;;;;;4592005;19;20018;-30
2023/03/24 17:37:29;;;;;;;10.32;6.80;;;14.70;99.90;;;;;;4592479;19;20011;-33
2023/03/24 17:39:03;;;;;;;11.85;8.57;;;14.70;99.90;;;;;;4591807;19;20014;-30
2023/03/24 17:40:36;;;;;;;11.23;7.45;;;14.70;99.90;;;;;;4592174;19;20022;-31
2023/03/24 17:42:07;;;;;;;12.30;8.50;;;14.70;99.90;;;;;;4590922;19;20010;-32
2023/03/24 17:43:39;;;;;;;12.85;9.13;;;14.70;99.90;;;;;;4591567;19;20011;-29
2023/03/24 17:45:13;;;;;;;20.77;16.35;;;14.70;99.90;;;;;;4591325;19;20031;-31
2023/03/24 17:46:44;;;;;;;45.47;40.95;;;14.70;99.90;;;;;;4589964;19;20023;-33
2023/03/24 17:48:15;;;;;;;39.65;35.45;;;14.60;99.90;;;;;;4590383;19;20485;-32
2023/03/24 17:49:47;;;;;;;;;;;14.50;99.90;;;;;;4590810;19;20022;-30
2023/03/24 17:51:19;;;;;;;;;;;14.40;99.90;;;;;;4590454;19;19915;-30
2023/03/24 17:52:50;;;;;;;15.82;10.50;;;14.40;99.90;;;;;;4589691;19;19911;-31
2023/03/24 17:54:24;;;;;;;16.83;12.13;;;14.20;99.90;;;;;;4592788;19;20010;-32
2023/03/24 17:55:57;;;;;;;21.05;16.33;;;14.10;99.90;;;;;;4591825;19;20006;-33
2023/03/24 17:57:28;;;;;;;23.33;17.13;;;14.10;99.90;;;;;;4591013;19;20021;-33
2023/03/24 17:59:02;;;;;;;;;;;14.10;99.90;;;;;;4592531;19;20010;-32
2023/03/24 18:00:35;;;;;;;14.50;10.13;;;14.10;99.90;;;;;;4589460;19;20260;-31
2023/03/24 18:02:09;;;;;;;14.93;10.50;;;14.10;99.90;;;;;;4588723;19;20070;-34
2023/03/24 18:03:41;;;;;;;18.98;12.15;;;14.10;99.90;;;;;;4590312;19;20113;-30
2023/03/24 18:05:14;;;;;;;16.17;10.97;;;14.10;99.90;;;;;;4590103;19;20345;-32
2023/03/24 18:06:46;;;;;;;16.05;11.07;;;14.00;99.90;;;;;;4589905;19;20006;-31
2023/03/24 18:08:18;;;;;;;17.95;11.93;;;14.00;99.90;;;;;;4589371;19;20014;-30
2023/03/24 18:09:51;;;;;;;23.27;17.20;;;14.10;99.90;;;;;;4589498;19;20017;-30
2023/03/24 18:11:24;;;;;;;22.97;17.73;;;14.10;99.90;;;;;;4589691;19;20031;-33
2023/03/24 18:12:55;;;;;;;;;;;14.10;99.90;;;;;;4592666;19;20322;-31
2023/03/24 18:14:26;;;;;;;17.15;11.75;;;14.10;99.90;;;;;;4591306;19;19925;-32
2023/03/24 18:15:59;;;;;;;25.50;17.33;;;14.10;99.90;;;;;;4590892;19;20014;-30
2023/03/24 18:17:32;;;;;;;92.78;73.65;;;14.20;99.90;;;;;;4590567;19;20601;-32
2023/03/24 18:19:03;;;;;;;;;;;14.20;99.90;;;;;;4591187;19;20007;-30
2023/03/24 18:20:35;;;;;;;27.63;20.88;;;14.20;99.90;;;;;;4589560;19;19999;-30
2023/03/24 18:22:07;;;;;;;17.45;12.35;;;14.20;99.90;;;;;;4588306;19;20032;-31
2023/03/24 18:23:39;;;;;;;16.50;11.48;;;14.30;99.90;;;;;;4590825;19;20037;-30
2023/03/24 18:25:12;;;;;;;19.55;11.50;;;14.30;99.90;;;;;;4590293;19;20017;-31
2023/03/24 18:26:44;;;;;;;20.65;13.55;;;14.30;99.90;;;;;;4590390;19;20019;-33
2023/03/24 18:28:16;;;;;;;19.83;13.57;;;14.30;99.90;;;;;;4591187;19;20007;-30
2023/03/24 18:29:48;;;;;;;26.60;15.07;;;14.30;99.90;;;;;;4590829;19;20527;-31
2023/03/24 18:31:20;;;;;;;26.17;15.68;;;14.30;99.90;;;;;;4590394;19;20433;-30
2023/03/24 18:32:53;;;;;;;23.80;13.10;;;14.30;99.90;;;;;;4589818;19;20038;-33
2023/03/24 18:34:25;;;;;;;20.00;12.52;;;14.30;99.90;;;;;;4589659;19;20533;-32
2023/03/24 18:36:06;;;;;;;15.48;9.02;;;14.30;99.90;;;;;;4589930;19;20018;-31
2023/03/24 18:37:38;;;;;;;21.10;13.23;;;14.30;99.90;;;;;;4588242;19;20014;-34
2023/03/24 18:39:09;;;;;;;;;;;14.30;99.90;;;;;;4569057;19;20018;-31
2023/03/24 18:40:41;;;;;;;20.33;13.43;;;14.30;99.90;;;;;;4590879;19;19914;-30
2023/03/24 18:42:14;;;;;;;19.20;12.40;;;14.30;99.90;;;;;;4591329;19;20011;-30
2023/03/24 18:43:46;;;;;;;22.65;13.95;;;14.30;99.90;;;;;;4592469;19;20013;-31
2023/03/24 18:45:18;;;;;;;21.40;13.20;;;14.30;99.90;;;;;;4591843;19;20025;-30
2023/03/24 18:46:50;;;;;;;19.80;13.23;;;14.30;99.90;;;;;;4590566;19;20042;-31
2023/03/24 18:48:27;;;;;;;19.65;13.57;;;14.30;99.90;;;;;;4590983;19;20507;-30
2023/03/24 18:50:01;;;;;;;46.38;34.35;;;14.30;99.90;;;;;;4590264;19;20011;-30
2023/03/24 18:51:32;;;;;;;29.95;21.73;;;14.30;99.90;;;;;;4590043;19;20018;-30
2023/03/24 18:53:04;;;;;;;18.27;13.32;;;14.30;99.90;;;;;;4590463;19;20014;-33
2023/03/24 18:54:35;;;;;;;25.73;16.42;;;14.30;99.90;;;;;;4590311;19;20018;-31
2023/03/24 18:56:07;;;;;;;25.63;16.63;;;14.20;99.90;;;;;;4590407;19;20059;-30
2023/03/24 18:57:39;;;;;;;21.98;14.10;;;14.30;99.90;;;;;;4593139;19;20021;-30
2023/03/24 18:59:12;;;;;;;19.48;13.57;;;14.20;99.90;;;;;;4591802;19;20529;-30
2023/03/24 19:00:54;;;;;;;21.55;14.85;;;14.20;99.90;;;;;;4590928;19;20018;-30
2023/03/24 19:02:25;;;;;;;;;;;14.20;99.90;;;;;;4591526;19;20354;-33
2023/03/24 19:03:58;;;;;;;19.30;12.70;;;14.30;99.90;;;;;;4591570;19;19929;-31
2023/03/24 19:05:31;;;;;;;16.15;11.73;;;14.30;99.90;;;;;;4591474;19;20038;-30
2023/03/24 19:07:07;;;;;;;14.98;12.20;;;14.30;99.90;;;;;;4590408;19;20010;-32
2023/03/24 19:08:44;;;;;;;17.33;14.00;;;14.30;99.90;;;;;;4590942;19;20019;-32
2023/03/24 19:10:16;;;;;;;20.40;14.50;;;14.30;99.90;;;;;;4590407;19;20381;-33
2023/03/24 19:11:47;;;;;;;;;;;14.30;99.90;;;;;;4590632;19;20034;-30
2023/03/24 19:13:20;;;;;;;21.13;14.02;;;14.30;99.90;;;;;;4591388;19;19925;-30
2023/03/24 19:14:52;;;;;;;20.00;15.30;;;14.30;99.90;;;;;;4589824;19;20014;-30
2023/03/24 19:16:24;;;;;;;20.05;14.40;;;14.40;99.90;;;;;;4592116;19;20074;-32
2023/03/24 19:17:59;;;;;;;19.83;15.35;;;14.40;99.90;;;;;;4592165;19;20037;-33
2023/03/24 19:19:30;;;;;;;24.48;17.25;;;14.40;99.90;;;;;;4591961;19;20003;-34
2023/03/24 19:21:03;;;;;;;24.08;16.95;;;14.40;99.90;;;;;;4589709;19;20018;-31
2023/03/24 19:22:35;;;;;;;24.73;19.80;;;14.40;99.90;;;;;;4590996;19;20500;-30
2023/03/24 19:24:06;;;;;;;22.58;18.00;;;14.40;99.90;;;;;;4590117;19;20065;-31
2023/03/24 19:25:38;;;;;;;29.90;21.73;;;14.40;99.90;;;;;;4590256;19;20030;-30
2023/03/24 19:27:09;;;;;;;;;;;14.40;99.90;;;;;;4589776;19;20017;-30
2023/03/24 19:28:40;;;;;;;32.85;24.02;;;14.40;99.90;;;;;;4589410;19;20321;-30
2023/03/24 19:30:11;;;;;;;33.95;23.33;;;14.40;99.90;;;;;;4589801;19;20019;-31
2023/03/24 19:31:43;;;;;;;24.65;18.75;;;14.30;99.90;;;;;;4592198;19;20026;-31
2023/03/24 19:33:14;;;;;;;26.65;19.08;;;14.30;99.90;;;;;;4591635;19;20014;-31
2023/03/24 19:34:45;;;;;;;30.55;21.52;;;14.30;99.90;;;;;;4590453;19;20018;-34
2023/03/24 19:36:18;;;;;;;25.83;20.08;;;14.30;99.90;;;;;;4590770;19;20015;-30
2023/03/24 19:37:49;;;;;;;25.33;21.00;;;14.30;99.90;;;;;;4589292;19;20043;-30
2023/03/24 19:39:21;;;;;;;33.40;23.15;;;14.30;99.90;;;;;;4589493;19;20468;-31
2023/03/24 19:40:54;;;;;;;58.22;34.88;;;14.30;99.90;;;;;;4591315;19;20019;-31
2023/03/24 19:42:29;;;;;;;47.13;29.00;;;14.20;99.90;;;;;;4590665;19;20038;-33
2023/03/24 19:44:01;;;;;;;32.50;23.10;;;14.20;99.90;;;;;;4593355;19;20414;-30
2023/03/24 19:45:35;;;;;;;33.92;21.63;;;14.10;99.90;;;;;;4593012;19;20018;-33
2023/03/24 19:47:06;;;;;;;31.52;21.73;;;14.10;99.90;;;;;;4591742;19;20048;-30
2023/03/24 19:48:37;;;;;;;75.05;39.25;;;14.10;99.90;;;;;;4590789;19;20014;-31
2023/03/24 19:50:10;;;;;;;76.43;38.45;;;14.10;99.90;;;;;;4591831;19;20036;-30
2023/03/24 19:51:44;;;;;;;131.63;70.60;;;14.10;99.90;;;;;;4593505;19;20029;-30
2023/03/24 19:53:15;;;;;;;94.32;52.08;;;14.00;99.90;;;;;;4591036;19;20027;-31
2023/03/24 19:54:47;;;;;;;94.93;55.20;;;14.00;99.90;;;;;;4592553;19;20018;-30
2023/03/24 19:56:19;;;;;;;;;;;14.00;99.90;;;;;;4592900;19;20034;-31
2023/03/24 19:57:50;;;;;;;79.80;50.00;;;14.00;99.90;;;;;;4592686;19;19926;-30
2023/03/24 19:59:23;;;;;;;75.35;49.05;;;14.00;99.90;;;;;;4591991;19;20021;-31
2023/03/24 20:00:54;;;;;;;71.75;47.38;;;14.00;99.90;;;;;;4589551;19;20010;-29
2023/03/24 20:02:25;;;;;;;89.80;55.58;;;14.00;99.90;;;;;;4589073;19;20070;-31
2023/03/24 20:03:56;;;;;;;78.53;44.00;;;14.00;99.90;;;;;;4590403;19;20019;-31
2023/03/24 20:05:28;;;;;;;;;;;14.00;99.90;;;;;;4592242;19;20369;-29
2023/03/24 20:07:00;;;;;;;37.42;24.88;;;14.00;99.90;;;;;;4590574;19;19970;-30